createdAt,value
2018-09-05T00:02:23.337Z,95.60
2018-09-05T00:05:26.457Z,95.50
2018-09-05T00:08:29.554Z,95.40
2018-09-05T00:11:32.653Z,95.00
2018-09-05T00:14:35.741Z,94.80
2018-09-05T00:17:38.834Z,95.10
2018-09-05T00:20:41.944Z,94.70
2018-09-05T00:23:45.057Z,94.60
2018-09-05T00:26:48.128Z,94.60
2018-09-05T00:29:51.240Z,95.00
2018-09-05T00:32:54.295Z,94.80
2018-09-05T00:35:57.381Z,94.80
2018-09-05T00:39:00.465Z,94.90
2018-09-05T00:42:03.558Z,94.80
2018-09-05T00:45:06.661Z,94.90
2018-09-05T00:48:09.945Z,94.90
2018-09-05T00:51:13.024Z,95.00
2018-09-05T00:54:16.136Z,95.10
2018-09-05T00:57:19.237Z,94.80
2018-09-05T01:00:22.393Z,94.70
2018-09-05T01:03:25.477Z,94.40
2018-09-05T01:06:28.557Z,94.40
2018-09-05T01:09:31.662Z,94.40
2018-09-05T01:12:34.741Z,94.40
2018-09-05T01:15:37.857Z,94.60
2018-09-05T01:18:40.955Z,94.60
2018-09-05T01:21:44.064Z,94.60
2018-09-05T01:24:47.151Z,94.50
2018-09-05T01:27:50.241Z,94.70
2018-09-05T01:30:53.345Z,94.70
2018-09-05T01:33:56.436Z,94.80
2018-09-05T01:36:59.522Z,94.80
2018-09-05T01:40:02.625Z,95.10
2018-09-05T01:43:05.763Z,95.20
2018-09-05T01:46:08.877Z,95.40
2018-09-05T01:49:11.945Z,95.40
2018-09-05T01:52:15.038Z,95.80
2018-09-05T01:55:18.145Z,95.40
2018-09-05T01:58:21.249Z,95.40
2018-09-05T02:01:24.691Z,95.20
2018-09-05T02:04:27.758Z,95.40
2018-09-05T02:07:30.834Z,95.30
2018-09-05T02:10:33.932Z,95.30
2018-09-05T02:13:37.013Z,95.30
2018-09-05T02:16:40.653Z,95.50
2018-09-05T02:19:43.765Z,95.60
2018-09-05T02:22:46.869Z,95.80
2018-09-05T02:25:49.958Z,95.90
2018-09-05T02:28:53.093Z,95.90
2018-09-05T02:31:56.186Z,96.00
2018-09-05T02:34:59.542Z,95.90
2018-09-05T02:38:02.625Z,95.70
2018-09-05T02:41:05.709Z,95.70
2018-09-05T02:44:14.298Z,95.60
2018-09-05T02:47:17.389Z,95.60
2018-09-05T02:50:20.569Z,95.70
2018-09-05T02:53:23.660Z,95.50
2018-09-05T02:56:26.751Z,95.60
2018-09-05T02:59:29.813Z,95.50
2018-09-05T03:02:32.924Z,95.20
2018-09-05T03:05:36.017Z,95.50
2018-09-05T03:08:39.128Z,95.70
2018-09-05T03:11:42.214Z,95.40
2018-09-05T03:14:45.282Z,96.00
2018-09-05T03:17:48.351Z,96.10
2018-09-05T03:20:51.425Z,96.00
2018-09-05T03:23:54.554Z,95.90
2018-09-05T03:26:57.636Z,95.90
2018-09-05T03:30:00.714Z,96.00
2018-09-05T03:33:03.843Z,96.40
2018-09-05T03:36:11.213Z,96.50
2018-09-05T03:39:14.309Z,96.40
2018-09-05T03:42:17.395Z,96.40
2018-09-05T03:45:20.741Z,96.40
2018-09-05T03:48:23.823Z,96.30
2018-09-05T03:51:26.903Z,96.60
2018-09-05T03:54:29.969Z,96.60
2018-09-05T03:57:33.059Z,96.60
2018-09-05T04:00:36.867Z,96.80
2018-09-05T04:03:39.971Z,96.70
2018-09-05T04:06:43.064Z,96.80
2018-09-05T04:09:46.173Z,96.90
2018-09-05T04:12:49.248Z,96.90
2018-09-05T04:15:52.331Z,97.00
2018-09-05T04:18:55.424Z,97.10
2018-09-05T04:21:58.565Z,97.10
2018-09-05T04:25:01.616Z,97.20
2018-09-05T04:28:04.700Z,97.00
2018-09-05T04:31:08.449Z,97.00
2018-09-05T04:34:11.511Z,96.90
2018-09-05T04:37:14.626Z,96.90
2018-09-05T04:40:17.724Z,96.80
2018-09-05T04:43:20.805Z,97.00
2018-09-05T04:46:23.879Z,97.10
2018-09-05T04:49:26.929Z,97.00
2018-09-05T04:52:30.099Z,96.60
2018-09-05T04:55:33.407Z,96.50
2018-09-05T04:58:36.461Z,96.70
2018-09-05T05:01:39.555Z,96.70
2018-09-05T05:04:42.609Z,96.50
2018-09-05T05:07:45.814Z,96.30
2018-09-05T05:13:58.586Z,95.90
2018-09-05T05:17:01.667Z,95.90
2018-09-05T05:20:04.841Z,95.80
2018-09-05T05:23:07.930Z,95.70
2018-09-05T05:26:11.033Z,95.60
2018-09-05T05:29:14.097Z,95.30
2018-09-05T05:32:17.208Z,95.00
2018-09-05T05:35:20.386Z,95.00
2018-09-05T05:38:23.453Z,94.80
2018-09-05T05:41:26.597Z,94.40
2018-09-05T05:44:29.669Z,94.00
2018-09-05T05:47:33.477Z,92.30
2018-09-05T05:50:36.617Z,89.40
2018-09-05T05:53:39.713Z,83.60
2018-09-05T05:56:43.157Z,77.00
2018-09-05T05:59:46.222Z,72.90
2018-09-05T06:02:49.326Z,69.00
2018-09-05T06:05:52.483Z,66.30
2018-09-05T06:08:55.537Z,63.80
2018-09-05T06:11:58.713Z,60.50
2018-09-05T06:15:01.821Z,58.20
2018-09-05T06:21:32.682Z,53.90
2018-09-05T06:24:35.793Z,51.90
2018-09-05T06:27:38.942Z,50.60
2018-09-05T06:30:53.360Z,49.30
2018-09-05T06:33:56.506Z,47.00
2018-09-05T06:37:04.158Z,46.10
2018-09-05T06:40:07.338Z,45.30
2018-09-05T06:43:10.445Z,44.70
2018-09-05T06:46:15.169Z,46.10
2018-09-05T06:49:18.280Z,44.90
2018-09-05T06:55:30.890Z,43.40
2018-09-05T06:58:34.618Z,43.40
2018-09-05T07:01:37.671Z,41.50
2018-09-05T07:04:40.777Z,41.60
2018-09-05T07:07:43.873Z,41.30
2018-09-05T07:10:49.065Z,40.60
2018-09-05T07:13:52.186Z,41.00
2018-09-05T07:16:55.292Z,40.50
2018-09-05T07:19:58.387Z,40.00
2018-09-05T07:23:01.470Z,40.10
2018-09-05T07:26:04.569Z,39.80
2018-09-05T07:29:07.638Z,40.30
2018-09-05T07:32:10.966Z,39.70
2018-09-05T07:35:14.043Z,39.90
2018-09-05T07:38:17.153Z,39.80
2018-09-05T07:41:20.242Z,40.40
2018-09-05T07:44:23.325Z,40.20
2018-09-05T07:47:26.454Z,41.00
2018-09-05T07:50:29.604Z,41.70
2018-09-05T07:53:32.757Z,42.20
2018-09-05T07:56:35.915Z,42.70
2018-09-05T07:59:39.001Z,43.50
2018-09-05T08:02:42.126Z,43.00
2018-09-05T08:05:45.210Z,42.30
2018-09-05T08:08:48.310Z,40.90
2018-09-05T08:11:51.484Z,40.20
2018-09-05T08:14:54.477Z,39.50
2018-09-05T08:17:57.569Z,38.80
2018-09-05T08:21:00.721Z,39.00
2018-09-05T08:24:03.840Z,41.10
2018-09-05T08:27:06.897Z,43.20
2018-09-05T08:30:10.122Z,43.30
2018-09-05T08:33:13.069Z,44.90
2018-09-05T08:36:16.621Z,44.90
2018-09-05T08:39:19.265Z,45.50
2018-09-05T08:42:22.435Z,45.10
2018-09-05T08:45:25.894Z,45.00
2018-09-05T08:48:28.843Z,45.80
2018-09-05T08:51:31.748Z,47.10
2018-09-05T08:54:34.821Z,47.50
2018-09-05T08:57:37.884Z,47.50
2018-09-05T09:00:40.976Z,48.30
2018-09-05T09:03:44.067Z,49.10
2018-09-05T09:06:47.157Z,48.90
2018-09-05T09:09:50.225Z,49.10
2018-09-05T09:12:53.485Z,48.20
2018-09-05T09:15:56.578Z,49.80
2018-09-05T09:18:59.621Z,47.90
2018-09-05T09:22:02.766Z,49.00
2018-09-05T09:25:05.849Z,48.10
2018-09-05T09:28:09.033Z,52.00
2018-09-05T09:31:12.032Z,51.90
2018-09-05T09:34:15.120Z,49.90
2018-09-05T09:37:18.217Z,49.20
2018-09-05T09:40:21.322Z,50.90
2018-09-05T09:43:24.391Z,50.60
2018-09-05T09:46:27.532Z,51.40
2018-09-05T09:49:30.718Z,50.90
2018-09-05T09:52:37.697Z,52.30
2018-09-05T09:55:40.798Z,53.20
2018-09-05T09:58:43.873Z,51.40
2018-09-05T10:02:43.682Z,51.20
2018-09-05T10:05:52.269Z,52.70
2018-09-05T10:09:00.817Z,52.60
2018-09-05T10:12:09.330Z,52.40
2018-09-05T10:15:12.473Z,52.50
2018-09-05T10:18:21.081Z,53.00
2018-09-05T10:21:24.176Z,53.40
2018-09-05T10:24:27.265Z,53.70
2018-09-05T10:27:30.349Z,51.70
2018-09-05T10:30:33.432Z,55.20
2018-09-05T10:33:36.529Z,54.90
2018-09-05T10:36:39.646Z,55.00
2018-09-05T10:39:43.029Z,54.40
2018-09-05T10:42:46.138Z,54.60
2018-09-05T10:45:49.233Z,53.90
2018-09-05T10:48:52.304Z,53.90
2018-09-05T10:51:56.410Z,54.30
2018-09-05T10:54:59.493Z,53.90
2018-09-05T10:58:08.342Z,56.00
2018-09-05T11:01:11.409Z,55.90
2018-09-05T11:04:14.523Z,55.30
2018-09-05T11:07:17.596Z,55.00
2018-09-05T11:10:24.467Z,54.60
2018-09-05T11:13:27.481Z,54.40
2018-09-05T11:16:31.546Z,55.10
2018-09-05T11:19:34.605Z,55.00
2018-09-05T11:22:37.750Z,54.70
2018-09-05T11:25:40.817Z,55.10
2018-09-05T11:28:43.916Z,54.60
2018-09-05T11:31:47.689Z,53.20
2018-09-05T11:34:50.774Z,52.80
2018-09-05T11:37:53.870Z,54.40
2018-09-05T11:40:56.957Z,54.30
2018-09-05T11:44:00.053Z,54.90
2018-09-05T11:47:03.197Z,54.30
2018-09-05T11:50:06.268Z,54.40
2018-09-05T11:53:09.382Z,54.80
2018-09-05T11:56:12.490Z,55.10
2018-09-05T11:59:15.646Z,54.50
2018-09-05T12:02:18.766Z,54.30
2018-09-05T12:05:21.834Z,54.30
2018-09-05T12:08:24.925Z,52.50
2018-09-05T12:11:28.041Z,53.20
2018-09-05T12:14:31.133Z,52.60
2018-09-05T12:17:34.245Z,52.80
2018-09-05T12:20:37.343Z,52.60
2018-09-05T12:23:40.609Z,52.20
2018-09-05T12:26:43.721Z,51.50
2018-09-05T12:29:46.772Z,51.50
2018-09-05T12:32:49.891Z,51.90
2018-09-05T12:35:52.957Z,52.30
2018-09-05T12:38:56.074Z,52.10
2018-09-05T12:41:59.153Z,52.70
2018-09-05T12:45:02.214Z,52.10
2018-09-05T12:48:05.290Z,52.10
2018-09-05T12:51:08.357Z,52.10
2018-09-05T12:54:11.455Z,51.40
2018-09-05T12:57:14.541Z,51.80
2018-09-05T13:00:17.642Z,52.50
2018-09-05T13:03:20.725Z,51.90
2018-09-05T13:06:23.805Z,51.80
2018-09-05T13:09:26.877Z,52.40
2018-09-05T13:12:29.961Z,51.60
2018-09-05T13:15:33.038Z,51.60
2018-09-05T13:18:36.093Z,51.70
2018-09-05T13:21:39.189Z,50.20
2018-09-05T13:24:42.266Z,50.90
2018-09-05T13:27:45.332Z,50.80
2018-09-05T13:30:48.411Z,50.60
2018-09-05T13:33:51.530Z,49.60
2018-09-05T13:36:54.635Z,50.40
2018-09-05T13:39:57.691Z,50.30
2018-09-05T13:43:00.781Z,50.50
2018-09-05T13:46:03.875Z,49.30
2018-09-05T13:49:06.963Z,49.40
2018-09-05T13:52:14.321Z,48.40
2018-09-05T13:55:17.430Z,49.00
2018-09-05T13:58:20.514Z,49.00
2018-09-05T14:01:23.709Z,47.90
2018-09-05T14:04:26.800Z,46.80
2018-09-05T14:07:29.893Z,47.60
2018-09-05T14:10:33.100Z,47.10
2018-09-05T14:13:36.227Z,47.40
2018-09-05T14:16:39.251Z,47.50
2018-09-05T14:19:42.321Z,48.50
2018-09-05T14:22:45.593Z,48.20
2018-09-05T14:25:48.680Z,48.40
2018-09-05T14:28:51.777Z,47.50
2018-09-05T14:31:54.863Z,48.60
2018-09-05T14:34:58.082Z,46.90
2018-09-05T14:38:01.145Z,48.40
2018-09-05T14:41:04.254Z,47.70
2018-09-05T14:44:07.332Z,48.20
2018-09-05T14:47:10.432Z,48.00
2018-09-05T14:50:13.517Z,47.60
2018-09-05T14:53:16.597Z,46.00
2018-09-05T14:56:19.713Z,46.50
2018-09-05T14:59:22.784Z,47.00
2018-09-05T15:02:25.911Z,45.40
2018-09-05T15:05:28.997Z,46.70
2018-09-05T15:08:32.081Z,45.20
2018-09-05T15:11:35.321Z,47.80
2018-09-05T15:14:38.465Z,45.30
2018-09-05T15:17:41.642Z,46.10
2018-09-05T15:20:44.753Z,45.20
2018-09-05T15:23:52.617Z,46.10
2018-09-05T15:26:55.700Z,47.00
2018-09-05T15:29:58.849Z,45.80
2018-09-05T15:33:01.933Z,45.00
2018-09-05T15:36:10.530Z,46.90
2018-09-05T15:39:13.662Z,46.20
2018-09-05T15:42:16.674Z,46.40
2018-09-05T15:45:19.769Z,46.80
2018-09-05T15:48:22.841Z,46.30
2018-09-05T15:51:25.935Z,47.30
2018-09-05T15:54:28.992Z,46.10
2018-09-05T15:57:32.113Z,46.00
2018-09-05T16:00:35.245Z,46.40
2018-09-05T16:03:38.434Z,45.90
2018-09-05T16:06:41.458Z,46.20
2018-09-05T16:09:44.615Z,46.40
2018-09-05T16:12:59.662Z,46.30
2018-09-05T16:16:02.901Z,46.40
2018-09-05T16:19:05.997Z,45.90
2018-09-05T16:22:09.089Z,45.90
2018-09-05T16:25:12.184Z,44.80
2018-09-05T16:28:15.279Z,44.40
2018-09-05T16:31:18.346Z,44.50
2018-09-05T16:34:21.439Z,43.70
2018-09-05T16:37:24.540Z,44.20
2018-09-05T16:40:27.629Z,44.50
2018-09-05T16:43:30.727Z,45.00
2018-09-05T16:46:33.858Z,45.00
2018-09-05T16:49:37.121Z,44.70
2018-09-05T16:52:40.170Z,45.20
2018-09-05T16:55:43.318Z,45.30
2018-09-05T16:58:46.410Z,45.80
2018-09-05T17:01:49.513Z,45.90
2018-09-05T17:04:52.920Z,46.20
2018-09-05T17:07:55.993Z,47.30
2018-09-05T17:10:59.373Z,47.00
2018-09-05T17:14:02.393Z,47.20
2018-09-05T17:17:05.485Z,51.30
2018-09-05T17:20:08.569Z,53.90
2018-09-05T17:23:12.081Z,55.10
2018-09-05T17:26:15.173Z,56.40
2018-09-05T17:29:18.269Z,57.20
2018-09-05T17:32:21.387Z,59.00
2018-09-05T17:35:24.625Z,60.90
2018-09-05T17:38:27.737Z,63.40
2018-09-05T17:41:30.809Z,65.10
2018-09-05T17:44:33.919Z,66.90
2018-09-05T17:47:37.012Z,68.50
2018-09-05T17:50:40.117Z,69.40
2018-09-05T17:53:43.295Z,70.20
2018-09-05T17:56:46.330Z,71.00
2018-09-05T17:59:49.409Z,72.10
2018-09-05T18:02:52.757Z,72.90
2018-09-05T18:05:55.877Z,73.90
2018-09-05T18:08:59.027Z,74.80
2018-09-05T18:12:02.116Z,75.20
2018-09-05T18:15:05.259Z,75.90
2018-09-05T18:18:08.462Z,76.60
2018-09-05T18:21:11.667Z,77.60
2018-09-05T18:24:14.991Z,77.90
2018-09-05T18:27:18.149Z,78.10
2018-09-05T18:30:21.373Z,78.30
2018-09-05T18:33:24.676Z,78.00
2018-09-05T18:36:27.918Z,77.90
2018-09-05T18:39:31.003Z,77.60
2018-09-05T18:42:44.725Z,77.50
2018-09-05T18:45:47.889Z,77.80
2018-09-05T18:48:51.029Z,77.60
2018-09-05T18:51:54.094Z,77.50
2018-09-05T18:54:57.234Z,77.70
2018-09-05T18:58:00.262Z,77.80
2018-09-05T19:01:03.353Z,78.10
2018-09-05T19:04:06.502Z,78.40
2018-09-05T19:07:09.626Z,78.60
2018-09-05T19:10:12.755Z,79.10
2018-09-05T19:13:15.874Z,79.10
2018-09-05T19:16:19.010Z,79.60
2018-09-05T19:19:22.126Z,79.70
2018-09-05T19:22:25.321Z,80.10
2018-09-05T19:25:28.393Z,80.30
2018-09-05T19:28:31.513Z,80.40
2018-09-05T19:31:34.614Z,80.10
2018-09-05T19:34:37.702Z,80.40
2018-09-05T19:37:40.812Z,80.20
2018-09-05T19:40:43.973Z,80.20
2018-09-05T19:43:47.089Z,80.10
2018-09-05T19:46:52.724Z,80.00
2018-09-05T19:49:55.761Z,79.90
2018-09-05T19:52:59.071Z,80.00
2018-09-05T19:56:02.205Z,80.10
2018-09-05T19:59:05.316Z,80.10
2018-09-05T20:02:08.490Z,80.70
2018-09-05T20:05:11.602Z,80.60
2018-09-05T20:08:14.698Z,80.60
2018-09-05T20:11:17.812Z,80.60
2018-09-05T20:14:20.921Z,80.60
2018-09-05T20:17:24.028Z,80.50
2018-09-05T20:20:27.125Z,80.60
2018-09-05T20:23:30.368Z,80.60
2018-09-05T20:26:33.438Z,80.60
2018-09-05T20:29:36.553Z,80.40
2018-09-05T20:32:39.653Z,80.50
2018-09-05T20:35:42.749Z,80.80
2018-09-05T20:38:45.888Z,80.80
2018-09-05T20:41:49.009Z,81.00
2018-09-05T20:44:59.905Z,81.00
2018-09-05T20:48:02.991Z,81.80
2018-09-05T20:51:06.076Z,81.80
2018-09-05T20:54:09.197Z,80.90
2018-09-05T20:57:12.284Z,81.00
2018-09-05T21:00:15.397Z,80.90
2018-09-05T21:03:18.535Z,80.90
2018-09-05T21:06:21.644Z,80.90
2018-09-05T21:09:24.721Z,81.10
2018-09-05T21:12:27.811Z,81.10
2018-09-05T21:15:30.909Z,80.90
2018-09-05T21:18:33.953Z,81.30
2018-09-05T21:21:37.081Z,81.30
2018-09-05T21:24:40.216Z,81.60
2018-09-05T21:27:43.336Z,81.70
2018-09-05T21:30:46.401Z,81.70
2018-09-05T21:33:49.545Z,81.60
2018-09-05T21:36:52.625Z,81.90
2018-09-05T21:39:55.749Z,81.80
2018-09-05T21:42:58.803Z,82.10
2018-09-05T21:46:01.895Z,82.20
2018-09-05T21:49:05.490Z,82.20
2018-09-05T21:52:08.589Z,82.00
2018-09-05T21:55:11.670Z,82.10
2018-09-05T21:58:14.806Z,82.40
2018-09-05T22:01:19.448Z,82.20
2018-09-05T22:04:22.726Z,82.20
2018-09-05T22:07:25.852Z,82.10
2018-09-05T22:10:28.924Z,82.10
2018-09-05T22:13:35.553Z,82.30
2018-09-05T22:16:38.673Z,82.20
2018-09-05T22:19:41.714Z,81.90
2018-09-05T22:22:44.846Z,82.10
2018-09-05T22:25:47.953Z,81.70
2018-09-05T22:28:51.065Z,81.90
2018-09-05T22:31:54.133Z,81.90
2018-09-05T22:34:57.245Z,82.00
2018-09-05T22:38:00.510Z,81.60
2018-09-05T22:41:03.809Z,81.60
2018-09-05T22:44:18.473Z,81.50
2018-09-05T22:47:33.145Z,81.20
2018-09-05T22:51:06.758Z,81.60
2018-09-05T22:54:26.455Z,81.20
2018-09-05T22:59:45.601Z,81.20
2018-09-05T23:03:03.754Z,81.90
2018-09-05T23:06:19.054Z,82.00
2018-09-05T23:09:33.714Z,82.70
2018-09-05T23:12:48.393Z,82.90
2018-09-05T23:16:03.022Z,83.20
2018-09-05T23:19:31.753Z,83.10
2018-09-05T23:23:51.057Z,83.20
2018-09-05T23:26:54.193Z,83.20
2018-09-05T23:29:57.303Z,83.10
2018-09-05T23:33:00.393Z,83.50
2018-09-05T23:36:03.683Z,83.60
2018-09-05T23:39:07.921Z,83.70
2018-09-05T23:42:11.069Z,83.70
2018-09-05T23:45:14.132Z,83.90
2018-09-05T23:48:17.198Z,83.80
2018-09-05T23:51:20.442Z,83.70
2018-09-05T23:54:23.526Z,83.80
2018-09-05T23:57:26.614Z,83.70
